Time;durP1;ratioP1;P1;durP2;ratioP2;P2;SDS_P1;SDS_P2;PMS_P1;PMS_P2;Temp;Humidity;BMP_temperature;BMP_pressure;BME280_temperature;BME280_humidity;BME280_pressure;Samples;Min_cycle;Max_cycle;Signal;HPM_P1;HPM_P2
2023/03/10 00:00:03;;;;;;;5.30;4.00;;;;;;;7.39;43.58;98587.40;144831;1259;96629;-82
2023/03/10 00:03:25;;;;;;;6.10;4.00;;;;;;;7.39;43.71;98576.35;145096;1260;97885;-79
2023/03/10 00:06:47;;;;;;;5.10;3.90;;;;;;;7.39;43.69;98586.36;145109;1259;96596;-81
2023/03/10 00:10:11;;;;;;;5.90;4.10;;;;;;;7.39;43.91;98583.61;145088;1255;96735;-80
2023/03/10 00:13:33;;;;;;;5.50;3.80;;;;;;;7.38;43.83;98584.81;145225;1266;96558;-81
2023/03/10 00:16:55;;;;;;;7.00;4.90;;;;;;;7.38;43.87;98586.36;144995;1267;96679;-81
2023/03/10 00:20:17;;;;;;;9.20;4.50;;;;;;;7.38;43.91;98576.34;144937;1260;97862;-80
2023/03/10 00:23:39;;;;;;;6.40;4.40;;;;;;;7.37;44.00;98569.59;144914;1260;109387;-81
2023/03/10 00:27:01;;;;;;;8.50;4.90;;;;;;;7.35;44.11;98562.14;145133;1268;96622;-79
2023/03/10 00:30:23;;;;;;;5.70;3.80;;;;;;;7.33;44.06;98547.27;145276;1259;96584;-78
2023/03/10 00:33:45;;;;;;;7.00;3.90;;;;;;;7.32;44.18;98539.85;145078;1260;101906;-80
2023/03/10 00:37:08;;;;;;;6.80;4.70;;;;;;;7.32;44.27;98534.14;145107;1258;96705;-78
2023/03/10 00:40:30;;;;;;;5.30;4.20;;;;;;;7.32;44.18;98535.16;145156;1259;96559;-79
2023/03/10 00:43:51;;;;;;;6.90;4.90;;;;;;;7.31;44.20;98536.02;145042;1260;97988;-80
2023/03/10 00:47:13;;;;;;;9.60;4.50;;;;;;;7.30;44.09;98537.58;144935;1262;107070;-79
2023/03/10 00:50:38;;;;;;;6.00;4.50;;;;;;;7.30;44.35;98528.42;144776;1260;108406;-79
2023/03/10 00:54:01;;;;;;;4.90;4.40;;;;;;;7.28;44.34;98511.30;145068;1267;96573;-77
2023/03/10 00:57:23;;;;;;;11.30;4.90;;;;;;;7.28;44.31;98507.66;144953;1258;96604;-79
2023/03/10 01:00:45;;;;;;;5.20;4.10;;;;;;;7.28;44.53;98512.85;144983;1260;96578;-78
2023/03/10 01:04:11;;;;;;;5.40;4.10;;;;;;;7.28;44.50;98513.89;144869;1262;97901;-78
2023/03/10 01:07:33;;;;;;;6.90;4.80;;;;;;;7.28;44.44;98509.40;145068;1259;96584;-78
2023/03/10 01:10:55;;;;;;;9.60;5.00;;;;;;;7.28;44.55;98507.14;145050;1267;96651;-82
2023/03/10 01:14:17;;;;;;;8.20;5.30;;;;;;;7.27;44.50;98505.24;144833;1260;96673;-78
2023/03/10 01:17:39;;;;;;;7.50;4.80;;;;;;;7.26;44.62;98500.58;145058;1259;97522;-82
2023/03/10 01:21:02;;;;;;;6.40;5.00;;;;;;;7.25;44.76;98502.63;144894;1259;96563;-81
2023/03/10 01:24:24;;;;;;;8.30;4.90;;;;;;;7.24;44.76;98502.63;145149;1257;97453;-78
2023/03/10 01:27:46;;;;;;;5.40;4.90;;;;;;;7.23;44.57;98491.57;145188;1259;109619;-79
2023/03/10 01:31:08;;;;;;;8.50;5.00;;;;;;;7.23;44.81;98483.98;145156;1259;96634;-79
2023/03/10 01:34:30;;;;;;;7.00;4.80;;;;;;;7.23;44.96;98478.98;144799;1271;96670;-78
2023/03/10 01:37:51;;;;;;;7.50;5.70;;;;;;;7.23;45.04;98471.71;144860;1260;102918;-81
2023/03/10 01:41:14;;;;;;;6.40;4.80;;;;;;;7.22;45.03;98469.11;145143;1260;97097;-77
2023/03/10 01:44:38;;;;;;;7.30;5.00;;;;;;;7.22;45.02;98462.55;145025;1260;96571;-78
2023/03/10 01:48:00;;;;;;;6.60;5.50;;;;;;;7.23;45.19;98462.03;145440;1259;97961;-77
2023/03/10 01:51:22;;;;;;;8.00;5.70;;;;;;;7.23;45.21;98461.86;144746;1260;109685;-78
2023/03/10 01:54:48;;;;;;;6.00;5.30;;;;;;;7.23;45.18;98452.02;145136;1260;98331;-78
2023/03/10 01:58:11;;;;;;;8.60;5.10;;;;;;;7.23;45.25;98450.11;145178;1277;107481;-80
2023/03/10 02:01:33;;;;;;;6.10;5.00;;;;;;;7.22;45.22;98441.46;144909;1257;98025;-77
2023/03/10 02:04:56;;;;;;;6.30;5.10;;;;;;;7.22;45.38;98424.18;145119;1260;97940;-77
2023/03/10 02:08:19;;;;;;;7.50;5.50;;;;;;;7.21;45.34;98418.48;144945;1256;98068;-77
2023/03/10 02:11:41;;;;;;;6.50;5.20;;;;;;;7.20;45.54;98415.20;144872;1262;98062;-78
2023/03/10 02:15:04;;;;;;;7.70;5.40;;;;;;;7.19;45.61;98416.05;144886;1262;99362;-79
2023/03/10 02:18:27;;;;;;;7.30;5.60;;;;;;;7.19;45.55;98407.23;145014;1254;98005;-77
2023/03/10 02:22:16;;;;;;;6.10;5.30;;;;;;;7.18;45.52;98394.96;145045;1259;97961;-79
2023/03/10 02:26:24;;;;;;;5.90;5.30;;;;;;;7.16;45.57;98371.98;145127;1267;97905;-78
2023/03/10 02:29:54;;;;;;;7.10;5.40;;;;;;;7.15;45.95;98372.50;144514;1270;99193;-78
2023/03/10 02:33:26;;;;;;;7.60;5.90;;;;;;;7.14;45.88;98380.61;144971;1260;97964;-78
2023/03/10 02:36:50;;;;;;;6.80;5.30;;;;;;;7.12;46.04;98373.02;144899;1262;99171;-78
2023/03/10 02:40:31;;;;;;;8.20;6.40;;;;;;;7.12;45.89;98354.17;144930;1261;98057;-79
2023/03/10 02:43:55;;;;;;;6.00;5.50;;;;;;;7.10;45.98;98363.84;144871;1259;98049;-80
2023/03/10 02:47:20;;;;;;;6.20;5.20;;;;;;;7.10;46.13;98353.47;144993;1260;99232;-78
2023/03/10 02:50:46;;;;;;;6.50;5.40;;;;;;;7.11;46.15;98339.64;144996;1268;98011;-79
2023/03/10 02:54:09;;;;;;;8.20;5.70;;;;;;;7.10;46.26;98340.52;145026;1266;98017;-78
2023/03/10 02:57:32;;;;;;;6.40;5.10;;;;;;;7.10;46.16;98342.41;144864;1263;98034;-79
2023/03/10 03:00:55;;;;;;;11.50;6.40;;;;;;;7.10;46.38;98338.09;144988;1269;99344;-79
2023/03/10 03:04:17;;;;;;;6.60;5.90;;;;;;;7.10;46.40;98326.52;144855;1259;97989;-78
2023/03/10 03:07:39;;;;;;;6.20;5.60;;;;;;;7.09;46.42;98318.06;144872;1263;99235;-81
2023/03/10 03:11:01;;;;;;;7.10;6.10;;;;;;;7.10;46.45;98323.94;144736;1269;110659;-79
2023/03/10 03:14:23;;;;;;;7.10;6.20;;;;;;;7.09;46.60;98317.38;144888;1271;98608;-78
2023/03/10 03:17:46;;;;;;;6.70;5.50;;;;;;;7.09;46.64;98306.84;144930;1260;98772;-79
2023/03/10 03:21:10;;;;;;;6.80;5.70;;;;;;;7.11;46.47;98294.22;144775;1260;103256;-78
2023/03/10 03:24:32;;;;;;;8.40;6.20;;;;;;;7.11;46.46;98276.09;144861;1258;102987;-80
2023/03/10 03:27:56;;;;;;;6.50;5.90;;;;;;;7.11;46.34;98261.58;144937;1264;98409;-79
2023/03/10 03:31:20;;;;;;;6.40;5.80;;;;;;;7.12;46.56;98253.64;144921;1258;98338;-79
2023/03/10 03:34:44;;;;;;;6.20;5.60;;;;;;;7.13;46.70;98251.59;144968;1260;103084;-79
2023/03/10 03:38:07;;;;;;;6.20;5.60;;;;;;;7.12;46.54;98255.73;144563;1273;98081;-79
2023/03/10 03:41:29;;;;;;;12.00;6.60;;;;;;;7.12;46.64;98251.05;144902;1259;99186;-79
2023/03/10 03:44:52;;;;;;;6.60;6.00;;;;;;;7.11;46.72;98243.96;145164;1269;97982;-79
2023/03/10 03:48:14;;;;;;;7.70;7.00;;;;;;;7.12;46.79;98233.79;144653;1271;108625;-78
2023/03/10 03:51:37;;;;;;;6.80;6.20;;;;;;;7.12;46.82;98225.81;144621;1271;97998;-78
2023/03/10 03:54:59;;;;;;;6.70;5.90;;;;;;;7.12;46.81;98223.08;144836;1261;97941;-77
2023/03/10 03:58:21;;;;;;;7.40;6.70;;;;;;;7.11;46.77;98214.08;145271;1267;98430;-80
2023/03/10 04:01:44;;;;;;;7.70;6.10;;;;;;;7.10;46.80;98207.35;145002;1254;97912;-80
2023/03/10 04:05:10;;;;;;;9.10;7.60;;;;;;;7.10;46.98;98203.02;144831;1260;99072;-78
2023/03/10 04:08:32;;;;;;;6.40;5.80;;;;;;;7.11;47.10;98199.92;145136;1260;99267;-78
2023/03/10 04:11:54;;;;;;;9.60;7.60;;;;;;;7.10;46.95;98193.88;144859;1257;98835;-78
2023/03/10 04:15:17;;;;;;;7.10;6.50;;;;;;;7.10;47.15;98181.44;144880;1269;98528;-78
2023/03/10 04:18:38;;;;;;;9.10;6.70;;;;;;;7.12;47.11;98161.92;144895;1262;97998;-79
2023/03/10 04:22:01;;;;;;;7.30;6.50;;;;;;;7.12;47.22;98160.55;145027;1270;99237;-78
2023/03/10 04:25:24;;;;;;;9.40;8.20;;;;;;;7.13;47.11;98160.73;145077;1260;111946;-76
2023/03/10 04:28:46;;;;;;;8.10;6.60;;;;;;;7.13;47.30;98157.80;144782;1267;98130;-76
2023/03/10 04:32:09;;;;;;;9.30;8.00;;;;;;;7.12;47.12;98161.94;144996;1257;98441;-77
2023/03/10 04:35:33;;;;;;;7.80;7.10;;;;;;;7.12;47.35;98171.08;145158;1260;97918;-77
2023/03/10 04:38:57;;;;;;;8.70;7.30;;;;;;;7.12;47.38;98165.38;144800;1257;97907;-79
2023/03/10 04:42:26;;;;;;;7.50;6.80;;;;;;;7.13;47.45;98164.70;144744;1261;112494;-76
2023/03/10 04:45:50;;;;;;;9.10;7.60;;;;;;;7.13;47.31;98156.76;144724;1260;112981;-77
2023/03/10 04:49:16;;;;;;;10.10;8.50;;;;;;;7.13;47.40;98143.80;145188;1258;112119;-77
2023/03/10 04:52:40;;;;;;;8.10;6.90;;;;;;;7.12;47.52;98132.91;144906;1263;112060;-77
2023/03/10 04:56:05;;;;;;;8.10;7.40;;;;;;;7.13;47.46;98138.45;144841;1257;97932;-76
2023/03/10 04:59:27;;;;;;;9.60;7.20;;;;;;;7.14;47.51;98124.10;144838;1261;110788;-77
2023/03/10 05:02:49;;;;;;;11.10;7.60;;;;;;;7.14;47.63;98110.98;144759;1257;140858;-80
2023/03/10 05:06:19;;;;;;;8.80;8.00;;;;;;;7.15;47.53;98103.54;144902;1264;98806;-76
2023/03/10 05:09:47;;;;;;;8.40;7.20;;;;;;;7.15;47.60;98101.81;144918;1261;102472;-77
2023/03/10 05:13:12;;;;;;;7.90;7.10;;;;;;;7.16;47.74;98094.40;145064;1263;98854;-77
2023/03/10 05:16:35;;;;;;;8.80;7.90;;;;;;;7.16;47.80;98083.36;144993;1260;102151;-77
2023/03/10 05:19:57;;;;;;;8.60;7.70;;;;;;;7.16;47.99;98054.51;145096;1256;97902;-78
2023/03/10 05:23:19;;;;;;;7.90;6.90;;;;;;;7.15;47.88;98042.75;145039;1269;97900;-78
2023/03/10 05:26:41;;;;;;;7.40;6.80;;;;;;;7.15;47.90;98048.10;145126;1260;109984;-78
2023/03/10 05:30:05;;;;;;;7.20;6.60;;;;;;;7.16;48.10;98074.20;145202;1260;97928;-77
2023/03/10 05:33:27;;;;;;;7.50;6.90;;;;;;;7.16;47.97;98076.09;145205;1260;99260;-78
2023/03/10 05:36:53;;;;;;;8.00;7.30;;;;;;;7.17;48.06;98073.66;145280;1260;108377;-78
2023/03/10 05:40:19;;;;;;;8.90;7.10;;;;;;;7.19;48.40;98058.48;145286;1255;97906;-77
2023/03/10 05:43:41;;;;;;;7.80;6.60;;;;;;;7.20;48.12;98050.35;145031;1261;107599;-79
2023/03/10 05:47:05;;;;;;;8.70;7.70;;;;;;;7.21;48.08;98034.28;144935;1260;99209;-76
2023/03/10 05:50:26;;;;;;;9.30;7.60;;;;;;;7.25;48.37;98028.91;144979;1260;98006;-78
2023/03/10 05:53:51;;;;;;;8.10;6.70;;;;;;;7.27;48.18;98030.31;145098;1258;108460;-78
2023/03/10 05:57:17;;;;;;;7.80;7.10;;;;;;;7.29;48.16;98037.39;144972;1257;108702;-77
2023/03/10 06:00:39;;;;;;;9.00;7.30;;;;;;;7.30;48.42;98042.41;144902;1257;98005;-79
2023/03/10 06:04:01;;;;;;;7.80;6.90;;;;;;;7.30;48.48;98045.33;145035;1257;98561;-78
2023/03/10 06:07:26;;;;;;;8.80;6.70;;;;;;;7.32;48.43;98043.61;145066;1257;99219;-78
2023/03/10 06:10:48;;;;;;;7.80;7.20;;;;;;;7.34;48.51;98031.16;144883;1269;97907;-77
2023/03/10 06:14:10;;;;;;;8.20;7.30;;;;;;;7.37;48.46;98024.08;144943;1259;99203;-77
2023/03/10 06:17:32;;;;;;;7.80;7.10;;;;;;;7.40;48.56;98014.57;144945;1259;99203;-78
2023/03/10 06:20:54;;;;;;;8.10;7.30;;;;;;;7.44;48.69;98007.48;145201;1261;97990;-76
2023/03/10 06:24:16;;;;;;;9.80;8.10;;;;;;;7.49;48.55;98002.45;144896;1260;97922;-79
2023/03/10 06:27:40;;;;;;;9.60;8.50;;;;;;;7.52;48.69;98005.90;144909;1260;99172;-82
2023/03/10 06:31:05;;;;;;;8.80;7.80;;;;;;;7.54;48.64;98015.58;145307;1260;98007;-79
2023/03/10 06:34:27;;;;;;;8.90;8.10;;;;;;;7.56;48.76;98019.39;145068;1260;111953;-76
2023/03/10 06:37:49;;;;;;;10.00;8.70;;;;;;;7.58;48.68;98014.88;144940;1255;97947;-76
2023/03/10 06:41:11;;;;;;;9.80;8.90;;;;;;;7.62;48.65;98001.39;145318;1254;98392;-79
2023/03/10 06:44:34;;;;;;;10.90;9.70;;;;;;;7.65;48.71;97992.20;145380;1255;100662;-76
2023/03/10 06:47:55;;;;;;;9.20;8.30;;;;;;;7.68;48.76;97991.34;145177;1254;98039;-79
2023/03/10 06:51:19;;;;;;;10.70;9.80;;;;;;;7.74;48.89;97997.36;145138;1260;98434;-77
2023/03/10 06:54:41;;;;;;;8.70;7.80;;;;;;;7.81;48.84;97997.34;145207;1267;107602;-77
2023/03/10 06:58:03;;;;;;;10.70;9.60;;;;;;;7.87;48.90;97987.45;145102;1259;99235;-76
2023/03/10 07:01:32;;;;;;;10.20;9.10;;;;;;;7.93;48.86;97979.48;145158;1260;99117;-76
2023/03/10 07:04:54;;;;;;;14.50;9.10;;;;;;;7.99;48.89;97968.21;145172;1254;98007;-75
2023/03/10 07:08:15;;;;;;;11.10;9.90;;;;;;;8.07;48.83;97970.42;145215;1254;98035;-78
2023/03/10 07:11:37;;;;;;;11.80;10.60;;;;;;;8.19;48.82;97962.75;145364;1254;97902;-76
2023/03/10 07:14:59;;;;;;;11.30;9.80;;;;;;;8.27;48.84;97960.45;145445;1255;97995;-76
2023/03/10 07:18:21;;;;;;;15.80;10.80;;;;;;;8.32;48.72;97956.27;145410;1254;99223;-76
2023/03/10 07:21:44;;;;;;;13.10;11.50;;;;;;;8.38;48.82;97951.92;145409;1260;97933;-76
2023/03/10 07:25:06;;;;;;;13.10;11.70;;;;;;;8.43;48.69;97934.59;144753;1270;110653;-76
2023/03/10 07:28:29;;;;;;;11.50;10.30;;;;;;;8.49;48.75;97939.73;145485;1254;98520;-76
2023/03/10 07:31:53;;;;;;;12.70;10.90;;;;;;;8.55;48.62;97943.67;145361;1260;97992;-75
2023/03/10 07:35:15;;;;;;;12.80;11.20;;;;;;;8.62;48.76;97948.66;144829;1261;97988;-76
2023/03/10 07:38:37;;;;;;;14.60;12.50;;;;;;;8.69;48.66;97950.67;145474;1259;97905;-75
2023/03/10 07:41:58;;;;;;;13.90;10.90;;;;;;;8.74;48.60;97941.63;145304;1254;102932;-75
2023/03/10 07:45:22;;;;;;;16.20;12.70;;;;;;;8.83;48.58;97936.88;145501;1254;98002;-76
2023/03/10 07:48:44;;;;;;;13.40;12.00;;;;;;;8.95;48.64;97925.85;145447;1259;98383;-77
2023/03/10 07:52:06;;;;;;;12.40;11.10;;;;;;;9.10;48.55;97917.73;145379;1260;98620;-76
2023/03/10 07:55:28;;;;;;;13.20;11.80;;;;;;;9.23;48.32;97917.27;145466;1254;107208;-76
2023/03/10 07:58:49;;;;;;;13.40;12.00;;;;;;;9.32;48.29;97909.54;145388;1254;97986;-80
2023/03/10 08:02:13;;;;;;;15.20;13.00;;;;;;;9.42;48.14;97909.59;145437;1254;97992;-75
2023/03/10 08:05:40;;;;;;;14.10;11.40;;;;;;;9.55;48.04;97891.25;145479;1260;97909;-84
2023/03/10 08:09:02;;;;;;;15.10;12.00;;;;;;;9.69;47.86;97887.42;145349;1259;99169;-81
2023/03/10 08:12:24;;;;;;;14.90;11.60;;;;;;;9.77;47.83;97883.16;145387;1254;97988;-75
2023/03/10 08:15:46;;;;;;;13.60;11.80;;;;;;;9.79;47.65;97879.14;145396;1259;99203;-75
2023/03/10 08:19:08;;;;;;;15.50;12.50;;;;;;;9.80;47.71;97877.91;145529;1259;98024;-73
2023/03/10 08:22:29;;;;;;;13.10;11.60;;;;;;;9.82;47.74;97884.13;145056;1270;97905;-75
2023/03/10 08:25:51;;;;;;;12.50;11.20;;;;;;;9.84;47.76;97886.02;145645;1260;99226;-74
2023/03/10 08:29:16;;;;;;;14.60;12.20;;;;;;;9.86;47.91;97887.37;145474;1259;110257;-74
2023/03/10 08:32:39;;;;;;;13.60;12.00;;;;;;;9.84;47.83;97880.96;144989;1259;111147;-78
2023/03/10 08:36:15;;;;;;;15.10;13.40;;;;;;;9.83;47.85;97878.39;145192;1259;98052;-76
2023/03/10 08:39:37;;;;;;;16.20;12.30;;;;;;;9.80;47.92;97870.64;145034;1261;111177;-74
2023/03/10 08:42:59;;;;;;;13.40;12.00;;;;;;;9.78;48.08;97859.73;145670;1258;97988;-78
2023/03/10 08:46:24;;;;;;;14.60;13.00;;;;;;;9.77;48.16;97863.91;145110;1254;99189;-76
2023/03/10 08:49:47;;;;;;;18.20;13.70;;;;;;;9.79;48.26;97862.66;144779;1263;102097;-78
2023/03/10 08:53:11;;;;;;;18.10;13.70;;;;;;;9.83;48.11;97872.50;145074;1254;102693;-79
2023/03/10 08:56:34;;;;;;;15.80;13.70;;;;;;;9.90;48.31;97867.71;145120;1259;97960;-80
2023/03/10 08:59:57;;;;;;;17.20;12.90;;;;;;;10.06;48.06;97854.47;144840;1260;97899;-76
2023/03/10 09:03:19;;;;;;;16.90;13.00;;;;;;;10.27;47.88;97856.94;145142;1259;98003;-76
2023/03/10 09:06:41;;;;;;;17.60;13.60;;;;;;;10.51;47.80;97847.36;145609;1254;108461;-74
2023/03/10 09:10:04;;;;;;;17.40;14.50;;;;;;;10.64;47.60;97844.37;145040;1260;97903;-76
2023/03/10 09:13:26;;;;;;;18.40;14.20;;;;;;;10.76;47.63;97841.55;145128;1254;98369;-73
2023/03/10 09:16:48;;;;;;;16.10;12.20;;;;;;;10.83;47.40;97842.64;145016;1266;98431;-75
2023/03/10 09:20:11;;;;;;;19.10;13.30;;;;;;;10.85;47.43;97832.52;145226;1259;98018;-75
2023/03/10 09:23:33;;;;;;;17.40;13.50;;;;;;;10.85;47.34;97830.27;145230;1257;98040;-75
2023/03/10 09:26:55;;;;;;;17.80;14.20;;;;;;;10.83;47.45;97828.91;145352;1257;97986;-83
2023/03/10 09:30:17;;;;;;;15.90;13.60;;;;;;;10.83;47.50;97826.14;145185;1254;97995;-74
2023/03/10 09:33:39;;;;;;;18.90;14.00;;;;;;;10.80;47.28;97820.10;145193;1256;97959;-75
2023/03/10 09:37:02;;;;;;;16.00;12.90;;;;;;;10.73;47.34;97819.20;145179;1254;97911;-75
2023/03/10 09:40:24;;;;;;;18.60;14.70;;;;;;;10.68;47.69;97806.09;145547;1255;98117;-73
2023/03/10 09:43:51;;;;;;;20.50;13.20;;;;;;;10.63;47.70;97807.91;144805;1260;111027;-74
2023/03/10 09:47:47;;;;;;;15.90;11.40;;;;;;;10.60;47.78;97816.30;145224;1259;111103;-77
2023/03/10 09:51:21;;;;;;;16.70;13.00;;;;;;;10.75;50.73;97808.40;145033;1257;111113;-77
2023/03/10 09:55:14;;;;;;;21.10;14.50;;;;;;;10.52;50.37;97796.48;145288;1258;111086;-78
2023/03/10 09:59:15;;;;;;;19.60;14.80;;;;;;;10.14;50.71;97798.83;144973;1259;111612;-76
2023/03/10 10:02:44;;;;;;;19.80;14.50;;;;;;;9.82;51.74;97794.45;145314;1267;110029;-78
2023/03/10 10:06:06;;;;;;;;;;;;;;;9.54;52.44;97787.58;145245;1259;111049;-77
2023/03/10 10:09:40;;;;;;;18.40;14.10;;;;;;;9.35;52.74;97782.12;145565;1254;98011;-77
2023/03/10 10:13:14;;;;;;;22.70;15.10;;;;;;;9.22;53.35;97779.67;145399;1254;103041;-77
2023/03/10 10:16:46;;;;;;;22.20;14.80;;;;;;;9.15;54.17;97761.74;145045;1255;102268;-76
2023/03/10 10:20:20;;;;;;;21.70;13.50;;;;;;;9.13;54.65;97750.34;145442;1254;102156;-75
2023/03/10 10:23:50;;;;;;;20.80;14.60;;;;;;;9.12;55.06;97752.42;145523;1254;102004;-76
2023/03/10 10:27:16;;;;;;;24.40;15.60;;;;;;;9.10;55.55;97750.89;144856;1254;102522;-75
2023/03/10 10:30:40;;;;;;;18.30;14.00;;;;;;;9.14;55.95;97745.65;145511;1259;102185;-76
2023/03/10 10:34:06;;;;;;;22.00;14.90;;;;;;;9.17;56.05;97743.70;145175;1254;97986;-76
2023/03/10 10:37:31;;;;;;;20.20;13.50;;;;;;;9.15;56.50;97738.54;145090;1259;102150;-76
2023/03/10 10:41:02;;;;;;;;;;;;;;;9.15;56.67;97738.88;145179;1259;102139;-75
2023/03/10 10:44:27;;;;;;;26.50;14.80;;;;;;;9.18;56.83;97731.55;145114;1259;102115;-78
2023/03/10 10:47:50;;;;;;;21.00;14.10;;;;;;;9.26;56.97;97731.29;144879;1260;97969;-76
2023/03/10 10:51:28;;;;;;;23.80;15.60;;;;;;;9.35;57.18;97733.39;145337;1259;103024;-76
2023/03/10 10:54:55;;;;;;;28.80;16.10;;;;;;;9.55;57.17;97727.75;145540;1255;101907;-76
2023/03/10 10:58:31;;;;;;;27.90;15.20;;;;;;;9.71;57.30;97722.29;145416;1262;102157;-76
2023/03/10 11:01:56;;;;;;;26.10;15.70;;;;;;;9.81;57.45;97724.05;144990;1259;102179;-76
2023/03/10 11:05:21;;;;;;;23.90;14.00;;;;;;;9.83;57.33;97714.48;145218;1254;103255;-79
2023/03/10 11:08:49;;;;;;;22.50;14.60;;;;;;;9.91;58.12;97715.56;145136;1260;101739;-76
2023/03/10 11:12:49;;;;;;;19.70;13.50;;;;;;;10.10;57.62;97716.98;145318;1260;103059;-76
2023/03/10 11:16:41;;;;;;;21.30;13.90;;;;;;;10.18;57.82;97712.84;144945;1260;101214;-75
2023/03/10 11:20:13;;;;;;;23.60;15.80;;;;;;;10.28;57.59;97709.21;145110;1254;103693;-76
2023/03/10 11:23:50;;;;;;;22.90;14.70;;;;;;;10.41;57.36;97705.51;145118;1259;101840;-75
2023/03/10 11:27:37;;;;;;;22.80;14.00;;;;;;;10.62;57.55;97694.68;145097;1259;102148;-76
2023/03/10 11:31:20;;;;;;;20.30;14.00;;;;;;;10.82;57.47;97691.84;144834;1254;102317;-77
2023/03/10 11:34:50;;;;;;;24.50;13.50;;;;;;;11.06;57.29;97691.02;145183;1259;100629;-76
2023/03/10 11:38:30;;;;;;;27.20;12.60;;;;;;;11.23;57.04;97692.52;145205;1261;101475;-76
2023/03/10 11:42:22;;;;;;;20.90;13.60;;;;;;;11.38;57.00;97687.17;145239;1258;102340;-79
2023/03/10 11:45:53;;;;;;;18.30;12.10;;;;;;;11.44;56.65;97680.61;145041;1278;102432;-76
2023/03/10 11:49:19;;;;;;;17.10;12.00;;;;;;;11.55;56.71;97678.08;145436;1257;102175;-78
2023/03/10 11:52:41;;;;;;;19.00;11.30;;;;;;;11.72;56.53;97665.85;144863;1257;103208;-77
2023/03/10 11:56:06;;;;;;;16.10;11.70;;;;;;;11.83;56.72;97663.85;145602;1257;98507;-78
2023/03/10 11:59:30;;;;;;;13.50;9.80;;;;;;;12.08;56.62;97656.43;145735;1259;97928;-76
2023/03/10 12:02:55;;;;;;;19.00;11.70;;;;;;;12.70;56.47;97655.08;145251;1254;102968;-77
2023/03/10 12:06:21;;;;;;;14.70;11.00;;;;;;;13.63;55.69;97659.06;145192;1254;102272;-75
2023/03/10 12:09:53;;;;;;;18.20;11.30;;;;;;;14.36;54.54;97658.03;145089;1259;101916;-78
2023/03/10 12:13:25;;;;;;;17.90;11.20;;;;;;;14.51;53.74;97657.52;145252;1257;103266;-75
2023/03/10 12:16:48;;;;;;;14.40;9.60;;;;;;;14.66;53.16;97655.96;145772;1260;102065;-77
2023/03/10 12:20:11;;;;;;;14.10;9.60;;;;;;;14.58;52.72;97653.27;145485;1254;97994;-77
2023/03/10 12:23:42;;;;;;;17.40;11.00;;;;;;;14.44;52.61;97654.60;145417;1254;97909;-77
2023/03/10 12:27:04;;;;;;;11.30;9.80;;;;;;;14.39;52.64;97649.35;145354;1254;102889;-77
2023/03/10 12:30:44;;;;;;;16.70;9.50;;;;;;;14.38;52.43;97645.53;145420;1259;97927;-76
2023/03/10 12:34:22;;;;;;;15.10;7.80;;;;;;;14.32;52.44;97644.20;145418;1257;101164;-76
2023/03/10 12:37:44;;;;;;;15.00;8.40;;;;;;;14.28;52.44;97642.77;145393;1258;102366;-81
2023/03/10 12:41:07;;;;;;;8.00;5.70;;;;;;;14.28;52.38;97646.25;145267;1254;99242;-76
2023/03/10 12:44:32;;;;;;;8.80;6.00;;;;;;;14.23;52.37;97646.08;145028;1262;97918;-77
2023/03/10 12:48:12;;;;;;;6.20;5.40;;;;;;;14.28;52.31;97636.65;145078;1254;107504;-83
2023/03/10 12:51:46;;;;;;;8.30;5.40;;;;;;;14.35;52.24;97630.46;145367;1254;106215;-78
2023/03/10 12:55:17;;;;;;;10.30;4.50;;;;;;;14.44;52.21;97634.67;144932;1258;107956;-75
2023/03/10 12:59:02;;;;;;;7.10;4.00;;;;;;;14.51;52.11;97626.76;145108;1254;107218;-76
2023/03/10 13:02:32;;;;;;;5.60;3.60;;;;;;;14.59;51.80;97621.56;145109;1260;107530;-77
2023/03/10 13:06:02;;;;;;;6.80;3.90;;;;;;;14.66;51.76;97626.40;145848;1258;107400;-76
2023/03/10 13:09:31;;;;;;;7.80;2.90;;;;;;;14.78;51.53;97625.79;145186;1258;107515;-77
2023/03/10 13:13:00;;;;;;;7.90;3.00;;;;;;;14.91;51.42;97628.44;145501;1254;107587;-76
2023/03/10 13:16:22;;;;;;;4.90;3.40;;;;;;;15.04;51.07;97626.73;145392;1260;108100;-76
2023/03/10 13:19:59;;;;;;;5.10;3.40;;;;;;;15.11;50.79;97625.90;145533;1254;97851;-76
2023/03/10 13:23:23;;;;;;;7.00;3.00;;;;;;;15.12;50.57;97623.24;145511;1254;108576;-78
2023/03/10 13:26:45;;;;;;;7.30;3.30;;;;;;;15.08;50.38;97629.51;145571;1259;107552;-79
2023/03/10 13:30:18;;;;;;;4.80;2.90;;;;;;;15.04;50.37;97630.93;144974;1259;97899;-78
2023/03/10 13:33:42;;;;;;;4.70;2.80;;;;;;;14.97;50.35;97636.95;145495;1254;107204;-78
2023/03/10 13:37:14;;;;;;;5.30;2.40;;;;;;;14.91;50.27;97634.02;145462;1258;107472;-80
2023/03/10 13:40:40;;;;;;;7.20;3.50;;;;;;;14.80;50.19;97636.19;145114;1259;97945;-77
2023/03/10 13:44:02;;;;;;;8.70;2.90;;;;;;;14.66;50.26;97633.05;144886;1255;107568;-79
2023/03/10 13:47:26;;;;;;;4.20;2.80;;;;;;;14.53;50.36;97634.02;145378;1258;98929;-79
2023/03/10 13:51:06;;;;;;;4.90;3.70;;;;;;;14.39;50.41;97642.55;144982;1258;97926;-77
2023/03/10 13:54:30;;;;;;;9.20;3.40;;;;;;;14.25;50.71;97647.92;144939;1255;107351;-78
2023/03/10 13:57:53;;;;;;;3.90;2.70;;;;;;;14.16;50.80;97647.36;145457;1259;106364;-78
2023/03/10 14:01:33;;;;;;;6.80;3.20;;;;;;;14.13;50.93;97644.67;145151;1259;97911;-78
2023/03/10 14:04:59;;;;;;;4.30;3.10;;;;;;;14.06;51.02;97646.48;145340;1255;108403;-79
2023/03/10 14:08:27;;;;;;;4.80;2.90;;;;;;;13.98;51.07;97652.88;145067;1259;107447;-78
2023/03/10 14:11:50;;;;;;;4.60;2.60;;;;;;;13.96;51.19;97650.87;145160;1257;107483;-78
2023/03/10 14:15:18;;;;;;;6.90;3.10;;;;;;;13.93;51.18;97650.58;144858;1267;98340;-78
2023/03/10 14:18:41;;;;;;;6.70;3.30;;;;;;;13.95;51.24;97645.30;144983;1257;105944;-78
2023/03/10 14:22:20;;;;;;;6.40;3.10;;;;;;;13.95;51.21;97644.27;145041;1258;107445;-78
2023/03/10 14:25:42;;;;;;;7.20;3.20;;;;;;;13.95;51.28;97651.77;145104;1267;107173;-79
2023/03/10 14:29:19;;;;;;;3.80;3.10;;;;;;;13.97;51.16;97650.80;145195;1259;98004;-78
2023/03/10 14:32:41;;;;;;;6.00;2.80;;;;;;;13.95;51.18;97654.00;145188;1256;107174;-79
2023/03/10 14:36:09;;;;;;;5.80;2.50;;;;;;;13.89;51.22;97648.64;145262;1258;97911;-78
2023/03/10 14:39:33;;;;;;;4.90;3.30;;;;;;;13.91;51.30;97644.55;145105;1254;107619;-79
2023/03/10 14:42:58;;;;;;;5.00;3.30;;;;;;;14.00;51.22;97645.30;145139;1258;99203;-81
2023/03/10 14:46:20;;;;;;;6.10;2.80;;;;;;;14.08;51.15;97642.59;144984;1254;107508;-79
2023/03/10 14:49:43;;;;;;;4.40;3.00;;;;;;;14.16;51.02;97641.79;145200;1259;97944;-78
2023/03/10 14:53:09;;;;;;;8.30;3.40;;;;;;;14.24;50.97;97636.42;144904;1261;98324;-79
2023/03/10 14:56:32;;;;;;;8.30;3.30;;;;;;;14.31;50.85;97637.77;145420;1260;98816;-79
2023/03/10 14:59:54;;;;;;;8.40;3.10;;;;;;;14.33;50.76;97639.43;145232;1261;98344;-79
2023/03/10 15:03:16;;;;;;;6.70;3.30;;;;;;;14.35;50.71;97636.05;144954;1259;99213;-78
2023/03/10 15:06:38;;;;;;;5.70;3.10;;;;;;;14.36;50.56;97632.88;144930;1259;97925;-78
2023/03/10 15:09:59;;;;;;;6.70;2.80;;;;;;;14.36;50.61;97631.67;144996;1259;98360;-79
2023/03/10 15:13:36;;;;;;;5.00;3.50;;;;;;;14.35;50.53;97633.44;145070;1256;97971;-79
2023/03/10 15:16:58;;;;;;;6.20;3.30;;;;;;;14.30;50.57;97634.30;144785;1259;97977;-80
2023/03/10 15:20:23;;;;;;;6.60;3.80;;;;;;;14.28;50.59;97630.38;144751;1270;98015;-78
2023/03/10 15:23:45;;;;;;;4.80;3.60;;;;;;;14.20;50.70;97627.51;145063;1259;98058;-79
2023/03/10 15:27:12;;;;;;;6.60;3.80;;;;;;;14.13;50.65;97625.12;145000;1259;99206;-78
2023/03/10 15:30:35;;;;;;;6.00;4.10;;;;;;;14.07;50.75;97628.31;144841;1261;97960;-78
2023/03/10 15:33:57;;;;;;;5.60;4.00;;;;;;;14.01;50.74;97634.45;144832;1259;97928;-80
2023/03/10 15:37:19;;;;;;;5.60;3.50;;;;;;;13.96;50.91;97626.25;145165;1259;97932;-78
2023/03/10 15:40:43;;;;;;;8.60;4.50;;;;;;;13.93;50.79;97631.04;145062;1259;111795;-79
2023/03/10 15:44:06;;;;;;;8.20;4.20;;;;;;;13.90;50.80;97635.67;145098;1259;98260;-78
2023/03/10 15:47:28;;;;;;;8.90;3.40;;;;;;;13.83;50.94;97629.80;145005;1259;97964;-78
2023/03/10 15:50:50;;;;;;;7.20;4.10;;;;;;;13.80;51.00;97634.98;145025;1259;102228;-78